createdAt,value
2023-01-13T06:44:41.519Z,618.00
2023-01-13T06:45:41.332Z,628.00
2023-01-13T06:46:41.345Z,629.00
2023-01-13T06:47:41.196Z,620.00
2023-01-13T06:48:41.133Z,630.00
2023-01-13T06:49:41.052Z,655.00
2023-01-13T06:50:40.973Z,685.00
2023-01-13T06:51:40.853Z,717.00
2023-01-13T06:52:40.804Z,722.00
2023-01-13T06:53:40.717Z,771.00
2023-01-13T06:54:40.611Z,799.00
2023-01-13T06:55:40.516Z,810.00
2023-01-13T06:56:40.397Z,819.00
2023-01-13T06:57:40.287Z,825.00
2023-01-13T06:58:40.208Z,840.00
2023-01-13T06:59:40.075Z,895.00
2023-01-13T07:00:40.076Z,899.00
2023-01-13T07:01:40.037Z,910.00
2023-01-13T07:02:39.809Z,938.00
2023-01-13T07:03:39.684Z,992.00
2023-01-13T07:04:43.868Z,1004.00
2023-01-13T07:05:44.463Z,1008.00
2023-01-13T07:08:42.898Z,1031.00
2023-01-13T07:11:42.067Z,1089.00
2023-01-13T07:12:43.553Z,1105.00
2023-01-13T07:13:43.174Z,1122.00
2023-01-13T07:14:43.416Z,1153.00
2023-01-13T07:15:43.647Z,1162.00
2023-01-13T07:16:43.417Z,1171.00
2023-01-13T07:18:40.731Z,1194.00
2023-01-13T07:19:40.243Z,1212.00
2023-01-13T07:20:40.222Z,1229.00
2023-01-13T07:21:38.911Z,1250.00
2023-01-13T07:33:36.453Z,1453.00
2023-01-13T07:34:36.363Z,1454.00
2023-01-13T07:35:36.203Z,1464.00
2023-01-13T07:36:36.077Z,1474.00
2023-01-13T07:37:35.969Z,1491.00
2023-01-13T07:38:35.850Z,1497.00
2023-01-13T07:39:35.743Z,1499.00
2023-01-13T07:40:35.618Z,1508.00
2023-01-13T07:41:35.484Z,1523.00
2023-01-13T07:42:35.365Z,1621.00
2023-01-13T07:43:35.255Z,1583.00
2023-01-13T07:44:35.161Z,1527.00
2023-01-13T07:45:35.091Z,1494.00
2023-01-13T07:46:34.898Z,1499.00
2023-01-13T07:47:34.763Z,1466.00
2023-01-13T07:48:34.672Z,1108.00
2023-01-13T07:49:34.553Z,1102.00
2023-01-13T07:50:38.787Z,1089.00
2023-01-13T07:51:39.086Z,1044.00
2023-01-13T07:52:38.631Z,1007.00
2023-01-13T07:53:41.102Z,1027.00
2023-01-13T07:54:45.553Z,1105.00
2023-01-13T07:55:46.816Z,1079.00
2023-01-13T07:56:45.927Z,1081.00
2023-01-13T07:57:42.556Z,1081.00
2023-01-13T07:58:40.475Z,1080.00
2023-01-13T07:59:41.489Z,1075.00
2023-01-13T08:00:41.147Z,1094.00
2023-01-13T08:01:37.192Z,1068.00
2023-01-13T08:02:36.978Z,1026.00
2023-01-13T08:03:32.875Z,1028.00
2023-01-13T08:04:32.976Z,1023.00
2023-01-13T08:05:32.655Z,1027.00
2023-01-13T08:06:32.526Z,1027.00
2023-01-13T08:07:32.420Z,1036.00
2023-01-13T08:08:32.310Z,1053.00
2023-01-13T08:09:32.203Z,1057.00
2023-01-13T08:10:32.093Z,1055.00
2023-01-13T08:11:31.943Z,1048.00
2023-01-13T08:12:31.849Z,1047.00
2023-01-13T08:13:31.745Z,1054.00
2023-01-13T08:14:31.609Z,1082.00
2023-01-13T08:15:31.511Z,1143.00
2023-01-13T08:16:31.402Z,1148.00
2023-01-13T08:17:31.245Z,1153.00
2023-01-13T08:18:31.167Z,1170.00
2023-01-13T08:19:30.999Z,1189.00
2023-01-13T08:20:30.881Z,1206.00
2023-01-13T08:21:30.781Z,1221.00
2023-01-13T08:22:30.655Z,1250.00
2023-01-13T08:23:30.511Z,1266.00
2023-01-13T08:24:30.403Z,1281.00
2023-01-13T08:25:30.277Z,1330.00
2023-01-13T08:26:30.155Z,1337.00
2023-01-13T08:27:30.575Z,1343.00
2023-01-13T08:28:32.110Z,1355.00
2023-01-13T08:29:33.297Z,1379.00
2023-01-13T08:30:34.354Z,1393.00
2023-01-13T08:31:35.201Z,1449.00
2023-01-13T08:32:29.999Z,1458.00
2023-01-13T08:33:29.659Z,1471.00
2023-01-13T08:34:29.272Z,1480.00
2023-01-13T08:35:29.436Z,1496.00
2023-01-13T08:36:29.014Z,1576.00
2023-01-13T08:38:29.948Z,1579.00
2023-01-13T08:39:29.347Z,1580.00
2023-01-13T09:54:19.880Z,1361.00
2023-01-13T09:55:19.757Z,1358.00
2023-01-13T09:56:19.603Z,1357.00
2023-01-13T09:57:19.516Z,1354.00
2023-01-13T09:58:19.369Z,1356.00
2023-01-13T09:59:19.301Z,1351.00
2023-01-13T10:00:19.152Z,1346.00
2023-01-13T10:01:19.043Z,1340.00
2023-01-13T10:02:18.918Z,1332.00
2023-01-13T11:03:11.319Z,709.00
2023-01-13T11:08:10.714Z,664.00
2023-01-13T11:09:10.603Z,656.00
2023-01-13T11:10:10.457Z,659.00
2023-01-13T11:11:10.348Z,668.00
2023-01-13T11:12:10.227Z,662.00
2023-01-13T11:13:10.541Z,658.00
2023-01-13T11:14:16.028Z,662.00
2023-01-13T11:15:20.296Z,674.00
2023-01-13T11:16:15.751Z,671.00
2023-01-13T11:17:11.578Z,668.00
2023-01-13T11:18:18.265Z,681.00
2023-01-13T11:19:18.108Z,678.00
2023-01-13T11:20:18.517Z,664.00
2023-01-13T11:21:12.966Z,655.00
2023-01-13T11:22:16.590Z,676.00
2023-01-13T11:23:18.111Z,656.00
2023-01-13T11:24:18.569Z,651.00
2023-01-13T11:25:17.471Z,652.00
2023-01-13T11:26:18.276Z,649.00
2023-01-13T11:27:35.002Z,652.00
2023-01-13T11:28:10.236Z,656.00
2023-01-13T11:29:18.433Z,664.00
2023-01-13T11:30:12.825Z,680.00
2023-01-13T11:31:18.643Z,689.00
2023-01-13T11:32:11.440Z,686.00
2023-01-13T11:33:11.297Z,688.00
2023-01-13T11:34:11.250Z,687.00
2023-01-13T11:35:12.054Z,712.00
2023-01-13T11:36:20.509Z,716.00
2023-01-13T11:37:15.788Z,723.00
2023-01-13T11:38:12.963Z,745.00
2023-01-13T11:39:13.624Z,753.00
2023-01-13T11:40:13.921Z,837.00
2023-01-13T11:41:11.622Z,876.00
2023-01-13T11:42:15.512Z,881.00
2023-01-13T11:43:20.265Z,884.00
2023-01-13T11:44:13.028Z,886.00
2023-01-13T11:45:11.585Z,886.00
2023-01-13T11:46:15.658Z,884.00
2023-01-13T11:47:13.259Z,888.00
2023-01-13T11:48:19.352Z,975.00
2023-01-13T11:49:17.949Z,959.00
2023-01-13T11:50:19.822Z,940.00
2023-01-13T11:51:14.130Z,936.00
2023-01-13T11:52:18.609Z,943.00
2023-01-13T11:53:15.131Z,936.00
2023-01-13T11:54:15.058Z,943.00
2023-01-13T11:55:17.607Z,942.00
2023-01-13T11:56:20.636Z,937.00
2023-01-13T11:59:13.928Z,949.00
2023-01-13T12:07:23.509Z,1076.00
2023-01-13T12:10:52.004Z,1134.00
2023-01-13T12:12:51.949Z,1146.00
2023-01-13T12:13:51.880Z,1148.00
2023-01-13T12:16:39.758Z,1141.00
2023-01-13T12:17:39.713Z,1132.00
2023-01-13T12:18:39.733Z,1124.00
2023-01-13T12:19:39.632Z,1115.00
2023-01-13T12:20:39.581Z,1114.00
2023-01-13T12:21:39.566Z,1113.00
2023-01-13T12:22:39.609Z,1102.00
2023-01-13T12:23:39.517Z,1080.00
2023-01-13T12:24:39.491Z,1081.00
2023-01-13T12:25:39.451Z,1102.00
2023-01-13T12:26:39.406Z,1140.00
2023-01-13T12:27:39.405Z,1148.00
2023-01-13T12:28:39.385Z,1151.00
2023-01-13T12:29:39.340Z,1152.00
2023-01-13T12:30:39.319Z,1162.00
2023-01-13T12:31:39.282Z,1164.00
2023-01-13T12:32:39.233Z,1162.00
2023-01-13T12:33:39.183Z,1160.00
2023-01-13T12:34:39.145Z,1152.00
2023-01-13T12:35:39.097Z,1143.00
2023-01-13T12:36:39.059Z,1136.00
2023-01-13T12:37:39.024Z,1126.00
2023-01-13T12:38:38.973Z,1119.00
2023-01-13T12:39:38.961Z,1112.00
2023-01-13T12:40:38.912Z,1110.00
2023-01-13T12:41:38.871Z,1109.00
2023-01-13T12:42:38.819Z,1107.00
2023-01-13T12:43:38.820Z,1100.00
2023-01-13T16:32:30.693Z,772.00
2023-01-13T16:33:30.671Z,772.00
2023-01-13T16:34:30.652Z,772.00
2023-01-13T16:35:30.622Z,772.00
2023-01-13T16:36:30.622Z,770.00
2023-01-13T16:37:30.597Z,768.00
2023-01-13T16:38:30.563Z,767.00
2023-01-13T16:39:30.560Z,764.00
2023-01-13T16:40:31.293Z,766.00
2023-01-13T16:41:30.487Z,766.00
2023-01-13T16:42:30.472Z,763.00
2023-01-13T16:43:30.442Z,762.00
2023-01-13T16:44:30.423Z,759.00
2023-01-13T16:45:30.437Z,759.00
2023-01-13T16:46:30.363Z,759.00
2023-01-13T16:47:30.341Z,762.00
2023-01-13T16:48:30.325Z,761.00
2023-01-13T16:49:30.326Z,763.00
2023-01-13T16:50:30.284Z,760.00
2023-01-13T16:51:30.247Z,759.00
2023-01-13T16:52:30.226Z,759.00
2023-01-13T16:53:30.207Z,756.00
2023-01-13T16:54:30.161Z,758.00
2023-01-13T16:55:30.148Z,756.00
2023-01-13T16:56:30.160Z,756.00
2023-01-13T16:57:30.103Z,757.00
2023-01-13T16:58:30.071Z,758.00
2023-01-13T16:59:30.057Z,756.00
2023-01-13T17:00:30.022Z,756.00
2023-01-13T17:01:30.107Z,755.00
2023-01-13T17:02:29.961Z,751.00
2023-01-13T17:03:29.969Z,753.00
2023-01-13T17:04:29.923Z,753.00
2023-01-13T17:05:29.921Z,753.00
2023-01-13T17:06:29.883Z,751.00
2023-01-13T17:07:29.857Z,751.00
2023-01-13T17:08:29.839Z,752.00
2023-01-13T17:09:29.803Z,752.00
2023-01-13T17:10:29.794Z,753.00
2023-01-13T17:11:29.749Z,754.00
2023-01-13T17:12:29.735Z,754.00
2023-01-13T17:13:29.712Z,755.00
2023-01-13T17:14:29.699Z,755.00
2023-01-13T17:15:29.681Z,752.00
2023-01-13T17:16:29.713Z,750.00
2023-01-13T17:17:29.625Z,750.00
2023-01-13T17:18:29.594Z,752.00
2023-01-13T17:19:29.569Z,750.00
2023-01-13T17:20:29.563Z,751.00
2023-01-13T17:21:29.520Z,751.00
2023-01-13T17:22:29.513Z,752.00
2023-01-13T17:23:29.479Z,751.00
2023-01-13T17:24:29.460Z,748.00
2023-01-13T17:25:29.474Z,747.00
2023-01-13T17:26:29.424Z,747.00
2023-01-13T17:27:29.390Z,749.00
2023-01-13T17:28:29.373Z,747.00
2023-01-13T17:29:29.348Z,746.00
2023-01-13T17:30:29.359Z,743.00
2023-01-13T17:31:29.311Z,746.00
2023-01-13T17:32:29.269Z,747.00
2023-01-13T17:33:29.244Z,749.00
2023-01-13T17:34:29.243Z,749.00
2023-01-13T17:35:29.206Z,747.00
2023-01-13T17:36:29.165Z,744.00
2023-01-13T17:37:29.132Z,744.00
2023-01-13T17:38:29.122Z,743.00
2023-01-13T17:39:29.083Z,744.00
2023-01-13T17:40:29.062Z,744.00
2023-01-13T17:41:29.030Z,742.00
2023-01-13T17:42:29.000Z,741.00
2023-01-13T17:43:28.982Z,738.00
2023-01-13T17:44:28.965Z,737.00
2023-01-13T17:45:29.040Z,737.00
2023-01-13T17:46:28.925Z,737.00
2023-01-13T21:24:23.375Z,677.00
2023-01-13T21:25:23.386Z,677.00
2023-01-13T21:26:23.322Z,675.00
2023-01-13T21:27:23.302Z,672.00
2023-01-13T21:28:23.267Z,668.00
2023-01-13T21:29:23.257Z,671.00
2023-01-13T21:30:23.221Z,668.00
2023-01-13T21:31:23.195Z,668.00
2023-01-13T21:32:23.170Z,668.00
2023-01-13T21:33:23.136Z,667.00
2023-01-13T21:34:23.129Z,668.00
2023-01-13T21:35:23.096Z,665.00
2023-01-13T21:36:23.081Z,666.00
2023-01-13T21:37:23.035Z,666.00
2023-01-13T21:38:23.004Z,666.00
2023-01-13T21:39:23.000Z,667.00
2023-01-13T21:40:22.986Z,668.00
2023-01-13T21:41:22.935Z,668.00
2023-01-13T21:42:22.915Z,668.00
2023-01-13T21:43:22.889Z,669.00
2023-01-13T21:44:22.857Z,668.00
2023-01-13T21:45:22.850Z,668.00
2023-01-13T21:46:22.812Z,665.00
2023-01-13T21:47:22.789Z,664.00
2023-01-13T21:48:22.753Z,663.00
2023-01-13T21:49:22.762Z,662.00
2023-01-13T21:50:22.724Z,662.00
2023-01-13T21:51:22.676Z,661.00
2023-01-13T21:52:22.636Z,661.00
2023-01-13T21:53:22.610Z,659.00
2023-01-13T21:54:22.608Z,662.00
2023-01-13T21:55:22.565Z,664.00
2023-01-13T21:56:22.545Z,665.00
2023-01-13T21:57:22.503Z,663.00
2023-01-13T21:58:22.477Z,664.00
2023-01-13T21:59:22.447Z,664.00
2023-01-13T22:00:22.474Z,666.00
2023-01-13T22:01:22.556Z,664.00
2023-01-13T22:02:24.671Z,662.00
2023-01-13T22:03:22.579Z,662.00
2023-01-13T22:04:22.562Z,660.00
2023-01-13T22:05:22.527Z,661.00
2023-01-13T22:06:22.555Z,660.00
2023-01-13T22:07:22.493Z,659.00
2023-01-13T22:08:22.453Z,658.00
2023-01-13T22:09:22.429Z,658.00
2023-01-13T22:10:22.397Z,655.00
2023-01-13T22:11:22.388Z,652.00
2023-01-13T22:12:22.371Z,650.00
2023-01-13T22:13:22.343Z,648.00
2023-01-13T22:14:22.327Z,648.00
2023-01-13T22:15:22.316Z,646.00
2023-01-13T22:16:22.310Z,645.00
2023-01-13T22:17:22.225Z,645.00
2023-01-13T22:18:22.199Z,645.00
2023-01-13T22:19:22.195Z,644.00
2023-01-13T22:20:22.165Z,642.00
2023-01-13T22:22:22.112Z,641.00
2023-01-13T23:21:20.502Z,626.00
2023-01-13T23:22:20.460Z,626.00
2023-01-13T23:23:20.428Z,627.00
2023-01-13T23:24:20.394Z,627.00
2023-01-13T23:25:20.379Z,625.00
2023-01-13T23:26:20.360Z,623.00
2023-01-13T23:27:20.315Z,624.00
2023-01-13T23:28:20.295Z,625.00
2023-01-13T23:29:20.263Z,627.00
2023-01-13T23:30:20.228Z,626.00
2023-01-13T23:31:20.207Z,628.00
2023-01-13T23:32:20.178Z,628.00
2023-01-13T23:33:20.153Z,625.00
2023-01-13T23:34:20.107Z,625.00
2023-01-13T23:35:20.081Z,623.00
2023-01-13T23:36:20.024Z,625.00
2023-01-13T23:37:20.006Z,625.00
2023-01-13T23:38:19.974Z,626.00
2023-01-13T23:39:19.932Z,626.00
2023-01-13T23:40:19.912Z,624.00
2023-01-13T23:41:19.921Z,622.00
2023-01-13T23:42:19.854Z,619.00
2023-01-13T23:43:19.836Z,618.00
2023-01-13T23:44:19.788Z,619.00
2023-01-13T23:45:19.763Z,618.00
2023-01-13T23:46:19.810Z,617.00
2023-01-13T23:47:19.707Z,617.00
2023-01-13T23:48:19.694Z,616.00
2023-01-13T23:49:19.647Z,615.00
2023-01-13T23:50:19.615Z,617.00
2023-01-13T23:51:19.619Z,619.00
2023-01-13T23:52:19.551Z,620.00
2023-01-13T23:53:19.539Z,619.00
2023-01-13T23:54:19.491Z,620.00
2023-01-13T23:55:19.484Z,619.00
2023-01-13T23:56:19.451Z,619.00
2023-01-13T23:57:19.442Z,618.00
2023-01-13T23:58:19.394Z,618.00
2023-01-13T23:59:19.359Z,617.00
